createdAt,value
2019-01-24T00:01:31.764Z,41.38
2019-01-24T00:04:02.077Z,41.14
2019-01-24T00:07:21.158Z,41.47
2019-01-24T00:09:53.827Z,41.74
2019-01-24T00:16:20.271Z,41.67
2019-01-24T00:19:10.438Z,41.87
2019-01-24T00:22:20.761Z,42.15
2019-01-24T00:25:10.800Z,42.39
2019-01-24T00:27:43.492Z,41.88
2019-01-24T00:30:33.105Z,42.05
2019-01-24T00:33:06.650Z,42.20
2019-01-24T00:35:58.270Z,41.95
2019-01-24T00:38:50.407Z,42.09
2019-01-24T00:41:33.593Z,42.26
2019-01-24T00:47:17.226Z,42.41
2019-01-24T00:50:10.174Z,42.41
2019-01-24T00:52:59.898Z,42.25
2019-01-24T00:55:49.963Z,42.03
2019-01-24T00:58:39.961Z,42.19
2019-01-24T01:01:30.021Z,42.15
2019-01-24T01:04:01.218Z,41.66
2019-01-24T01:06:35.006Z,42.07
2019-01-24T01:09:09.101Z,41.79
2019-01-24T01:11:40.135Z,41.98
2019-01-24T01:17:13.421Z,41.57
2019-01-24T01:20:03.863Z,41.50
2019-01-24T01:22:35.130Z,41.07
2019-01-24T01:25:24.412Z,41.00
2019-01-24T01:27:55.573Z,41.08
2019-01-24T01:30:46.580Z,41.23
2019-01-24T01:33:17.657Z,41.41
2019-01-24T01:36:07.726Z,41.26
2019-01-24T01:38:38.764Z,41.45
2019-01-24T01:41:28.834Z,41.54
2019-01-24T01:43:59.408Z,41.54
2019-01-24T01:49:52.567Z,41.24
2019-01-24T01:52:22.899Z,41.24
2019-01-24T01:54:53.922Z,41.16
2019-01-24T01:57:25.094Z,41.29
2019-01-24T02:02:39.669Z,41.26
2019-01-24T02:05:11.054Z,41.40
2019-01-24T02:07:42.105Z,41.70
2019-01-24T02:10:15.331Z,41.75
2019-01-24T02:12:46.547Z,41.65
2019-01-24T02:18:23.870Z,41.52
2019-01-24T02:20:55.435Z,41.73
2019-01-24T02:24:08.384Z,41.70
2019-01-24T02:29:40.194Z,41.81
2019-01-24T02:32:42.798Z,41.94
2019-01-24T02:35:25.699Z,41.71
2019-01-24T02:38:02.927Z,41.37
2019-01-24T02:40:35.091Z,41.37
2019-01-24T02:43:06.379Z,41.35
2019-01-24T02:49:03.922Z,41.64
2019-01-24T02:51:49.523Z,41.69
2019-01-24T02:54:20.725Z,41.51
2019-01-24T03:03:07.260Z,41.62
2019-01-24T03:05:38.356Z,41.62
2019-01-24T03:11:27.558Z,42.06
2019-01-24T03:20:11.755Z,42.16
2019-01-24T03:23:11.538Z,41.74
2019-01-24T03:26:23.325Z,41.94
2019-01-24T03:31:37.086Z,42.33
2019-01-24T03:34:08.163Z,42.50
2019-01-24T03:37:18.727Z,42.66
2019-01-24T03:42:55.284Z,42.25
2019-01-24T03:48:44.297Z,42.26
2019-01-24T03:51:54.326Z,42.06
2019-01-24T03:54:40.345Z,42.15
2019-01-24T03:57:13.001Z,42.20
2019-01-24T03:59:43.235Z,42.12
2019-01-24T04:05:19.587Z,42.02
2019-01-24T04:07:50.735Z,42.23
2019-01-24T04:10:41.333Z,42.37
2019-01-24T04:13:12.493Z,42.20
2019-01-24T04:15:43.545Z,41.97
2019-01-24T04:18:33.571Z,41.94
2019-01-24T04:21:06.704Z,41.85
2019-01-24T04:23:37.792Z,41.72
2019-01-24T04:26:27.918Z,41.78
2019-01-24T04:28:59.030Z,41.64
2019-01-24T04:31:30.142Z,41.71
2019-01-24T04:34:01.621Z,41.92
2019-01-24T04:36:44.695Z,41.95
2019-01-24T04:39:36.323Z,41.87
2019-01-24T04:42:29.057Z,41.79
2019-01-24T04:47:42.830Z,41.85
2019-01-24T04:50:15.291Z,41.93
2019-01-24T04:53:05.321Z,41.55
2019-01-24T04:55:36.422Z,41.69
2019-01-24T04:58:06.718Z,41.51
2019-01-24T05:00:56.819Z,41.70
2019-01-24T05:03:31.463Z,41.51
2019-01-24T05:06:02.550Z,41.55
2019-01-24T05:08:52.630Z,41.58
2019-01-24T05:11:25.887Z,42.24
2019-01-24T05:17:11.125Z,41.99
2019-01-24T05:19:42.260Z,42.23
2019-01-24T05:22:13.426Z,42.43
2019-01-24T05:25:03.467Z,42.66
2019-01-24T05:30:23.447Z,43.23
2019-01-24T05:32:55.422Z,43.20
2019-01-24T05:35:34.505Z,43.15
2019-01-24T05:38:12.004Z,43.39
2019-01-24T05:41:04.087Z,43.39
2019-01-24T05:43:54.226Z,42.87
2019-01-24T05:49:58.822Z,42.41
2019-01-24T05:52:30.056Z,42.39
2019-01-24T05:55:20.093Z,42.55
2019-01-24T05:58:13.222Z,42.67
2019-01-24T06:00:49.055Z,42.59
2019-01-24T06:03:38.661Z,42.47
2019-01-24T06:06:28.707Z,42.58
2019-01-24T06:08:59.804Z,42.73
2019-01-24T06:11:30.986Z,42.70
2019-01-24T06:14:02.051Z,42.30
2019-01-24T06:16:51.018Z,42.56
2019-01-24T06:19:43.290Z,42.42
2019-01-24T06:22:33.367Z,42.44
2019-01-24T06:25:04.469Z,42.65
2019-01-24T06:30:44.343Z,42.51
2019-01-24T06:37:03.023Z,43.14
2019-01-24T06:39:34.377Z,43.19
2019-01-24T06:42:04.717Z,43.37
2019-01-24T06:44:36.864Z,43.33
2019-01-24T06:53:17.266Z,43.12
2019-01-24T06:55:48.462Z,43.46
2019-01-24T06:58:19.514Z,43.67
2019-01-24T07:03:52.067Z,43.31
2019-01-24T07:06:41.324Z,43.49
2019-01-24T07:09:30.589Z,43.50
2019-01-24T07:12:22.199Z,43.16
2019-01-24T07:15:15.432Z,42.76
2019-01-24T07:17:45.777Z,43.02
2019-01-24T07:20:53.926Z,43.04
2019-01-24T07:26:05.508Z,43.16
2019-01-24T07:28:36.546Z,43.29
2019-01-24T07:31:07.090Z,42.97
2019-01-24T07:33:57.159Z,42.76
2019-01-24T07:36:28.185Z,42.91
2019-01-24T07:39:35.273Z,42.99
2019-01-24T07:42:00.406Z,43.35
2019-01-24T07:44:49.660Z,43.19
2019-01-24T07:53:16.406Z,43.03
2019-01-24T07:55:57.290Z,42.73
2019-01-24T07:58:41.820Z,43.36
2019-01-24T08:01:39.496Z,43.36
2019-01-24T08:04:29.715Z,42.80
2019-01-24T08:07:00.922Z,42.71
2019-01-24T08:09:32.095Z,42.60
2019-01-24T08:12:26.332Z,42.41
2019-01-24T08:15:26.962Z,42.14
2019-01-24T08:17:58.693Z,42.51
2019-01-24T08:20:31.003Z,42.09
2019-01-24T08:26:03.512Z,42.09
2019-01-24T08:28:34.756Z,42.04
2019-01-24T08:31:25.018Z,42.06
2019-01-24T08:34:14.475Z,42.23
2019-01-24T08:36:56.078Z,42.32
2019-01-24T08:39:59.513Z,41.85
2019-01-24T08:42:30.801Z,41.86
2019-01-24T08:51:10.247Z,42.03
2019-01-24T08:53:41.467Z,42.21
2019-01-24T08:59:35.485Z,42.17
2019-01-24T09:02:07.011Z,42.13
2019-01-24T09:04:37.626Z,42.13
2019-01-24T09:07:11.680Z,41.97
2019-01-24T09:13:14.145Z,41.34
2019-01-24T09:28:14.851Z,42.10
2019-01-24T09:36:59.020Z,41.45
2019-01-24T09:39:49.239Z,41.63
2019-01-24T09:42:20.861Z,41.59
2019-01-24T09:44:52.438Z,41.44
2019-01-24T09:47:34.126Z,41.87
2019-01-24T09:50:06.276Z,42.14
2019-01-24T09:53:15.085Z,41.20
2019-01-24T09:58:29.477Z,41.28
2019-01-24T10:01:38.593Z,40.84
2019-01-24T10:07:38.962Z,40.94
2019-01-24T10:13:34.551Z,41.03
2019-01-24T10:16:24.686Z,41.03
2019-01-24T10:21:48.240Z,41.12
2019-01-24T10:24:18.776Z,40.89
2019-01-24T10:36:08.969Z,41.20
2019-01-24T10:38:50.512Z,41.59
2019-01-24T10:41:34.692Z,40.76
2019-01-24T10:43:55.529Z,40.73
2019-01-24T10:46:45.925Z,40.80
2019-01-24T10:52:23.471Z,40.45
2019-01-24T10:55:14.884Z,40.85
2019-01-24T10:57:46.424Z,40.28
2019-01-24T11:00:58.817Z,40.66
2019-01-24T11:03:48.507Z,40.84
2019-01-24T11:06:37.883Z,40.04
2019-01-24T11:09:10.152Z,39.51
2019-01-24T11:11:41.526Z,40.15
2019-01-24T11:14:31.871Z,41.00
2019-01-24T11:17:03.231Z,41.72
2019-01-24T11:22:57.858Z,41.67
2019-01-24T11:25:48.021Z,39.77
2019-01-24T11:28:21.734Z,40.30
2019-01-24T11:31:11.994Z,40.32
2019-01-24T11:33:55.224Z,40.85
2019-01-24T11:36:37.613Z,40.64
2019-01-24T11:39:11.697Z,40.48
2019-01-24T11:42:02.138Z,40.73
2019-01-24T11:44:38.464Z,39.97
2019-01-24T11:47:22.102Z,39.73
2019-01-24T11:49:42.929Z,39.71
2019-01-24T11:52:33.396Z,38.97
2019-01-24T11:58:54.120Z,39.37
2019-01-24T12:01:44.503Z,39.52
2019-01-24T12:04:34.883Z,39.82
2019-01-24T12:07:46.870Z,39.96
2019-01-24T12:10:35.780Z,39.85
2019-01-24T12:13:44.698Z,40.27
2019-01-24T12:16:15.892Z,38.39
2019-01-24T12:18:49.140Z,38.39
2019-01-24T12:21:23.267Z,39.00
2019-01-24T12:24:13.545Z,38.95
2019-01-24T12:30:06.039Z,39.17
2019-01-24T12:38:18.260Z,39.56
2019-01-24T12:43:50.021Z,39.52
2019-01-24T12:46:42.683Z,39.09
2019-01-24T12:49:32.741Z,37.70
2019-01-24T12:52:23.167Z,37.62
2019-01-24T12:55:11.916Z,37.88
2019-01-24T12:58:02.032Z,37.88
2019-01-24T13:00:55.953Z,38.12
2019-01-24T13:03:59.776Z,38.12
2019-01-24T13:06:53.199Z,38.41
2019-01-24T13:12:38.149Z,38.94
2019-01-24T13:15:09.943Z,38.76
2019-01-24T13:17:42.824Z,39.01
2019-01-24T13:20:17.144Z,38.67
2019-01-24T13:22:51.199Z,38.17
2019-01-24T13:25:44.998Z,37.91
2019-01-24T13:28:38.144Z,38.31
2019-01-24T13:31:27.325Z,37.92
2019-01-24T13:33:58.618Z,38.38
2019-01-24T13:37:10.730Z,38.81
2019-01-24T13:40:05.795Z,39.07
2019-01-24T13:42:45.232Z,38.50
2019-01-24T13:51:54.005Z,38.95
2019-01-24T13:54:44.233Z,39.67
2019-01-24T13:57:15.736Z,39.32
2019-01-24T14:00:05.818Z,39.42
2019-01-24T14:05:40.386Z,39.93
2019-01-24T14:08:30.168Z,39.59
2019-01-24T14:11:22.537Z,39.59
2019-01-24T14:14:12.724Z,40.11
2019-01-24T14:16:44.065Z,40.51
2019-01-24T14:19:15.515Z,40.62
2019-01-24T14:21:49.886Z,40.34
2019-01-24T14:24:26.228Z,40.04
2019-01-24T14:26:57.438Z,40.25
2019-01-24T14:29:32.964Z,39.92
2019-01-24T14:32:04.269Z,40.36
2019-01-24T14:35:13.127Z,40.36
2019-01-24T14:40:54.455Z,39.64
2019-01-24T14:43:44.830Z,40.12
2019-01-24T14:52:57.155Z,40.36
2019-01-24T14:55:47.278Z,40.36
2019-01-24T14:58:37.473Z,39.65
2019-01-24T15:01:16.455Z,39.54
2019-01-24T15:03:52.213Z,39.91
2019-01-24T15:06:22.666Z,39.52
2019-01-24T15:08:53.982Z,39.08
2019-01-24T15:11:30.681Z,39.08
2019-01-24T15:14:03.833Z,38.04
2019-01-24T15:16:34.311Z,37.88
2019-01-24T15:25:49.167Z,38.76
2019-01-24T15:30:52.219Z,39.00
2019-01-24T15:34:01.477Z,38.89
2019-01-24T15:39:38.591Z,39.62
2019-01-24T15:42:32.471Z,40.27
2019-01-24T15:45:01.471Z,40.32
2019-01-24T15:47:35.546Z,40.48
2019-01-24T15:50:44.981Z,41.18
2019-01-24T15:53:18.500Z,41.29
2019-01-24T15:56:08.628Z,41.43
2019-01-24T15:58:54.472Z,41.67
2019-01-24T16:07:28.615Z,41.19
2019-01-24T16:10:19.007Z,41.35
2019-01-24T16:13:12.441Z,41.40
2019-01-24T16:16:03.909Z,42.15
2019-01-24T16:21:44.149Z,41.83
2019-01-24T16:24:53.069Z,41.51
2019-01-24T16:27:24.406Z,41.72
2019-01-24T16:32:58.779Z,41.90
2019-01-24T16:35:54.815Z,41.81
2019-01-24T16:38:46.562Z,41.51
2019-01-24T16:41:36.801Z,41.78
2019-01-24T16:44:10.547Z,42.13
2019-01-24T16:46:41.845Z,41.77
2019-01-24T16:49:35.215Z,41.34
2019-01-24T16:52:28.253Z,41.08
2019-01-24T16:54:59.230Z,41.02
2019-01-24T17:04:00.767Z,40.87
2019-01-24T17:07:11.364Z,40.68
2019-01-24T17:09:42.821Z,40.14
2019-01-24T17:17:58.451Z,39.99
2019-01-24T17:23:29.966Z,40.42
2019-01-24T17:26:01.095Z,40.88
2019-01-24T17:28:51.106Z,40.91
2019-01-24T17:34:24.532Z,40.66
2019-01-24T17:36:58.159Z,40.88
2019-01-24T17:39:29.228Z,41.00
2019-01-24T17:42:39.442Z,40.96
2019-01-24T17:48:13.721Z,41.40
2019-01-24T17:50:44.726Z,41.22
2019-01-24T17:53:36.026Z,41.20
2019-01-24T17:56:07.112Z,40.78
2019-01-24T17:58:42.624Z,40.94
2019-01-24T18:01:16.039Z,40.62
2019-01-24T18:06:51.146Z,39.97
2019-01-24T18:09:24.912Z,39.55
2019-01-24T18:14:59.965Z,40.52
2019-01-24T18:17:52.318Z,42.39
2019-01-24T18:20:25.121Z,43.24
2019-01-24T18:26:06.939Z,43.50
2019-01-24T18:28:41.237Z,44.15
2019-01-24T18:31:12.230Z,43.82
2019-01-24T18:34:02.695Z,44.27
2019-01-24T18:36:45.387Z,44.51
2019-01-24T18:42:38.720Z,44.16
2019-01-24T18:48:02.882Z,44.95
2019-01-24T18:54:08.841Z,45.75
2019-01-24T19:03:25.733Z,45.62
2019-01-24T19:06:00.729Z,46.55
2019-01-24T19:12:01.273Z,46.59
2019-01-24T19:17:53.217Z,46.49
2019-01-24T19:20:35.577Z,46.13
2019-01-24T19:27:11.912Z,46.03
2019-01-24T19:36:31.941Z,46.51
2019-01-24T19:39:14.139Z,46.19
2019-01-24T19:41:49.763Z,45.34
2019-01-24T19:44:20.720Z,45.43
2019-01-24T19:46:52.124Z,45.55
2019-01-24T19:52:45.024Z,44.08
2019-01-24T19:55:39.361Z,43.87
2019-01-24T20:04:06.119Z,41.74
2019-01-24T20:06:45.640Z,41.03
2019-01-24T20:09:42.545Z,40.13
2019-01-24T20:22:43.209Z,38.68
2019-01-24T20:24:59.767Z,38.16
2019-01-24T20:27:39.308Z,37.63
2019-01-24T20:36:19.317Z,37.76
2019-01-24T20:39:09.746Z,37.46
2019-01-24T20:42:00.069Z,37.08
2019-01-24T20:53:19.819Z,36.72
2019-01-24T20:55:50.418Z,36.65
2019-01-24T20:59:12.572Z,36.88
2019-01-24T21:02:03.372Z,36.65
2019-01-24T21:04:23.980Z,36.16
2019-01-24T21:09:50.184Z,36.36
2019-01-24T21:12:39.141Z,36.25
2019-01-24T21:18:01.368Z,36.20
2019-01-24T21:20:31.624Z,35.92
2019-01-24T21:24:01.033Z,36.32
2019-01-24T21:26:21.406Z,36.71
2019-01-24T21:29:13.883Z,36.39
2019-01-24T21:31:48.894Z,36.42
2019-01-24T21:37:20.978Z,36.61
2019-01-24T21:40:13.012Z,35.94
2019-01-24T21:42:46.313Z,36.10
2019-01-24T21:45:19.298Z,35.75
2019-01-24T21:47:49.559Z,36.09
2019-01-24T21:50:21.072Z,36.20
2019-01-24T21:53:10.351Z,36.36
2019-01-24T21:59:05.762Z,35.22
2019-01-24T22:01:55.759Z,35.53
2019-01-24T22:04:46.839Z,35.99
2019-01-24T22:10:17.689Z,36.68
2019-01-24T22:12:47.958Z,37.03
2019-01-24T22:15:40.722Z,36.97
2019-01-24T22:18:12.413Z,36.73
2019-01-24T22:24:35.850Z,36.95
2019-01-24T22:27:27.351Z,37.75
2019-01-24T22:29:59.198Z,37.69
2019-01-24T22:33:08.567Z,38.16
2019-01-24T22:39:09.899Z,37.99
2019-01-24T22:41:59.326Z,37.72
2019-01-24T22:44:48.567Z,37.37
2019-01-24T22:53:06.820Z,36.59
2019-01-24T22:55:56.893Z,37.34
2019-01-24T22:58:27.550Z,36.91
2019-01-24T23:01:50.150Z,36.61
2019-01-24T23:07:38.644Z,36.84
2019-01-24T23:10:28.288Z,37.05
2019-01-24T23:13:36.443Z,37.12
2019-01-24T23:16:06.925Z,37.31
2019-01-24T23:18:37.276Z,37.28
2019-01-24T23:21:26.666Z,37.39
2019-01-24T23:24:30.454Z,37.24
2019-01-24T23:27:58.155Z,37.31
2019-01-24T23:34:02.345Z,37.19
2019-01-24T23:39:16.165Z,37.24
2019-01-24T23:42:05.585Z,37.15
2019-01-24T23:44:35.906Z,36.92
2019-01-24T23:47:27.106Z,36.79
2019-01-24T23:50:00.583Z,36.85
2019-01-24T23:52:51.606Z,37.16
2019-01-24T23:55:22.768Z,36.87
2019-01-24T23:58:14.050Z,36.87
